Andersen AFB, Guam
Current Conditions -  °F | °C
As of 3:33 PM on Sunday 26 Oct 2014 (Local Time) from PGUA Reporting Station
Few Clouds Few Clouds  
Wind Chill: 79°   Ceiling: Unl
Heat Index: 82°   Visibility: 10mi
Dew Point: 75°   Wind: 6mph
Humidity: 89%   Direction: 40°NE
Pressure: 29.84"   Gusts: NA
Location:  13.58°N, 144.92°E
Report Text: PGUA 260533Z AUTO 04005KT 10SM FEW007 26/24 A2984 RMK AO2 RAE0523DZB0523E0534 $
Loading
Personal Weather Stations






























Interactive Weather Map
Tropical Storm Tracking
New forecast layout! Learn more

10-Day Weather Forecast

Advertisements
Track Severe Weather on mobile